createdAt,value
2023-04-12T00:00:00.282Z,21.60
2023-04-12T00:00:44.451Z,21.60
2023-04-12T00:01:21.674Z,21.60
2023-04-12T00:02:00.785Z,21.61
2023-04-12T00:02:38.782Z,21.62
2023-04-12T00:03:17.531Z,21.63
2023-04-12T00:03:55.445Z,21.60
2023-04-12T00:04:34.185Z,21.61
2023-04-12T00:05:11.809Z,21.60
2023-04-12T00:05:48.440Z,21.57
2023-04-12T00:06:27.504Z,21.58
2023-04-12T00:07:05.861Z,21.61
2023-04-12T00:07:45.699Z,21.59
2023-04-12T00:08:24.264Z,21.58
2023-04-12T00:09:03.672Z,21.63
2023-04-12T00:09:42.639Z,21.63
2023-04-12T00:10:21.734Z,21.62
2023-04-12T00:11:01.771Z,21.62
2023-04-12T00:11:40.398Z,21.64
2023-04-12T00:12:18.138Z,21.63
2023-04-12T00:12:56.186Z,21.63
2023-04-12T00:13:35.589Z,21.60
2023-04-12T00:14:14.424Z,21.61
2023-04-12T00:14:52.662Z,21.59
2023-04-12T00:15:29.911Z,21.59
2023-04-12T00:16:06.711Z,21.61
2023-04-12T00:16:45.825Z,21.60
2023-04-12T00:17:24.209Z,21.60
2023-04-12T00:18:03.545Z,21.60
2023-04-12T00:18:41.993Z,21.58
2023-04-12T00:19:21.445Z,21.58
2023-04-12T00:19:59.525Z,21.58
2023-04-12T00:20:36.470Z,21.58
2023-04-12T00:21:15.291Z,21.61
2023-04-12T00:21:53.871Z,21.61
2023-04-12T00:22:31.989Z,21.63
2023-04-12T00:23:09.676Z,21.62
2023-04-12T00:23:47.611Z,21.61
2023-04-12T00:24:26.553Z,21.61
2023-04-12T00:25:03.713Z,21.58
2023-04-12T00:25:43.018Z,21.57
2023-04-12T00:26:21.589Z,21.59
2023-04-12T00:27:00.810Z,21.63
2023-04-12T00:27:39.309Z,21.61
2023-04-12T00:28:17.257Z,21.63
2023-04-12T00:28:55.418Z,21.64
2023-04-12T00:29:34.288Z,21.63
2023-04-12T00:30:11.912Z,21.61
2023-04-12T00:30:49.972Z,21.60
2023-04-12T00:31:27.754Z,21.61
2023-04-12T00:32:06.383Z,21.61
2023-04-12T00:32:45.432Z,21.60
2023-04-12T00:33:23.017Z,21.61
2023-04-12T00:34:01.940Z,21.61
2023-04-12T00:34:39.854Z,21.61
2023-04-12T00:35:17.792Z,21.61
2023-04-12T00:35:56.640Z,21.59
2023-04-12T00:36:34.717Z,21.60
2023-04-12T00:37:13.344Z,21.60
2023-04-12T00:37:53.437Z,21.56
2023-04-12T00:38:31.553Z,21.58
2023-04-12T00:39:09.967Z,21.57
2023-04-12T00:39:47.523Z,21.60
2023-04-12T00:40:25.733Z,21.61
2023-04-12T00:41:04.450Z,21.61
2023-04-12T00:41:43.230Z,21.61
2023-04-12T00:42:21.033Z,21.62
2023-04-12T00:43:00.474Z,21.62
2023-04-12T00:43:39.201Z,21.61
2023-04-12T00:44:18.239Z,21.60
2023-04-12T00:44:56.652Z,21.62
2023-04-12T00:45:35.834Z,21.58
2023-04-12T00:46:14.221Z,21.60
2023-04-12T00:46:52.997Z,21.60
2023-04-12T00:47:33.354Z,21.60
2023-04-12T00:48:13.292Z,21.60
2023-04-12T00:48:52.853Z,21.58
2023-04-12T00:49:30.930Z,21.57
2023-04-12T00:50:10.083Z,21.59
2023-04-12T00:50:48.490Z,21.57
2023-04-12T00:51:27.855Z,21.56
2023-04-12T00:52:07.296Z,21.59
2023-04-12T00:52:45.859Z,21.60
2023-04-12T00:53:24.421Z,21.58
2023-04-12T00:54:02.622Z,21.60
2023-04-12T00:54:40.060Z,21.61
2023-04-12T00:55:18.401Z,21.57
2023-04-12T00:55:57.332Z,21.58
2023-04-12T00:56:35.320Z,21.59
2023-04-12T00:57:15.140Z,21.61
2023-04-12T00:57:54.218Z,21.61
2023-04-12T00:58:32.125Z,21.61
2023-04-12T00:59:11.031Z,21.63
2023-04-12T00:59:48.795Z,21.64
2023-04-12T01:00:26.772Z,21.64
2023-04-12T01:01:05.217Z,21.64
2023-04-12T01:01:43.729Z,21.61
2023-04-12T01:02:23.068Z,21.58
2023-04-12T01:03:01.402Z,21.60
2023-04-12T01:03:40.766Z,21.63
2023-04-12T01:04:19.602Z,21.64
2023-04-12T01:04:56.761Z,21.63
2023-04-12T01:05:35.726Z,21.65
2023-04-12T01:06:17.927Z,21.64
2023-04-12T01:07:04.031Z,21.66
2023-04-12T01:07:49.896Z,21.66
2023-04-12T01:08:49.097Z,21.63
2023-04-12T01:09:28.810Z,21.62
2023-04-12T01:10:04.540Z,21.63
2023-04-12T01:10:40.622Z,21.62
2023-04-12T01:11:21.104Z,21.60
2023-04-12T01:12:11.135Z,21.62
2023-04-12T01:12:47.390Z,21.61
2023-04-12T01:13:30.041Z,21.63
2023-04-12T01:14:05.967Z,21.62
2023-04-12T01:14:46.312Z,21.64
2023-04-12T01:15:25.523Z,21.65
2023-04-12T01:16:12.069Z,21.58
2023-04-12T01:16:52.978Z,21.62
2023-04-12T01:17:32.707Z,21.62
2023-04-12T01:18:12.175Z,21.57
2023-04-12T01:18:51.857Z,21.62
2023-04-12T01:19:46.366Z,21.59
2023-04-12T01:20:27.778Z,21.59
2023-04-12T01:21:07.025Z,21.61
2023-04-12T01:21:45.495Z,21.61
2023-04-12T01:22:23.612Z,21.63
2023-04-12T01:23:05.779Z,21.61
2023-04-12T01:23:56.931Z,21.63
2023-04-12T01:24:57.747Z,21.60
2023-04-12T01:25:51.572Z,21.57
2023-04-12T01:26:44.539Z,21.59
2023-04-12T01:27:39.078Z,21.62
2023-04-12T01:28:24.858Z,21.61
2023-04-12T01:29:03.242Z,21.58
2023-04-12T01:29:42.560Z,21.57
2023-04-12T01:30:21.319Z,21.57
2023-04-12T01:30:58.508Z,21.58
2023-04-12T01:31:37.393Z,21.56
2023-04-12T01:32:15.968Z,21.53
2023-04-12T01:32:54.952Z,21.56
2023-04-12T01:33:34.749Z,21.54
2023-04-12T01:34:13.553Z,21.54
2023-04-12T01:34:53.497Z,21.52
2023-04-12T01:35:35.142Z,21.51
2023-04-12T01:36:15.867Z,21.56
2023-04-12T01:36:54.059Z,21.55
2023-04-12T01:37:33.465Z,21.60
2023-04-12T01:38:14.703Z,21.58
2023-04-12T01:38:53.938Z,21.56
2023-04-12T01:39:33.760Z,21.58
2023-04-12T01:40:10.896Z,21.61
2023-04-12T01:40:48.179Z,21.58
2023-04-12T01:41:26.316Z,21.56
2023-04-12T01:42:04.916Z,21.54
2023-04-12T01:42:42.909Z,21.57
2023-04-12T01:43:22.004Z,21.56
2023-04-12T01:44:01.103Z,21.57
2023-04-12T01:44:38.150Z,21.56
2023-04-12T01:45:17.689Z,21.57
2023-04-12T01:45:56.276Z,21.60
2023-04-12T01:46:35.050Z,21.56
2023-04-12T01:47:13.518Z,21.57
2023-04-12T01:47:52.661Z,21.60
2023-04-12T01:48:31.870Z,21.57
2023-04-12T01:49:10.197Z,21.58
2023-04-12T01:49:52.335Z,21.54
2023-04-12T01:50:32.096Z,21.54
2023-04-12T01:51:16.906Z,21.56
2023-04-12T01:51:52.424Z,21.56
2023-04-12T01:52:31.296Z,21.57
2023-04-12T01:53:14.714Z,21.58
2023-04-12T01:53:58.865Z,21.57
2023-04-12T01:54:39.237Z,21.55
2023-04-12T01:55:18.841Z,21.55
2023-04-12T01:55:57.810Z,21.51
2023-04-12T01:56:39.491Z,21.53
2023-04-12T01:57:18.853Z,21.55
2023-04-12T01:57:58.496Z,21.53
2023-04-12T01:58:37.760Z,21.54
2023-04-12T01:59:16.042Z,21.56
2023-04-12T01:59:54.832Z,21.55
2023-04-12T02:00:34.072Z,21.52
2023-04-12T02:01:12.509Z,21.53
2023-04-12T02:01:51.090Z,21.57
2023-04-12T02:02:30.150Z,21.54
2023-04-12T02:03:09.362Z,21.53
2023-04-12T02:03:47.893Z,21.55
2023-04-12T02:04:26.478Z,21.53
2023-04-12T02:05:05.545Z,21.56
2023-04-12T02:05:43.495Z,21.54
2023-04-12T02:06:23.515Z,21.49
2023-04-12T02:07:02.133Z,21.54
2023-04-12T02:07:41.779Z,21.52
2023-04-12T02:08:20.313Z,21.51
2023-04-12T02:09:15.343Z,21.51
2023-04-12T02:09:54.652Z,21.53
2023-04-12T02:10:33.099Z,21.52
2023-04-12T02:11:13.012Z,21.52
2023-04-12T02:11:51.367Z,21.55
2023-04-12T02:12:30.448Z,21.55
2023-04-12T02:13:08.924Z,21.51
2023-04-12T02:13:47.483Z,21.50
2023-04-12T02:14:26.096Z,21.48
2023-04-12T02:15:05.583Z,21.51
2023-04-12T02:15:42.729Z,21.51
2023-04-12T02:16:19.973Z,21.51
2023-04-12T02:16:58.737Z,21.51
2023-04-12T02:17:37.151Z,21.54
2023-04-12T02:18:16.254Z,21.57
2023-04-12T02:18:54.321Z,21.56
2023-04-12T02:19:33.805Z,21.56
2023-04-12T02:20:11.190Z,21.56
2023-04-12T02:20:49.824Z,21.53
2023-04-12T02:21:27.582Z,21.56
2023-04-12T02:22:05.955Z,21.54
2023-04-12T02:22:44.127Z,21.49
2023-04-12T02:23:23.023Z,21.49
2023-04-12T02:24:02.524Z,21.52
2023-04-12T02:24:40.066Z,21.54
2023-04-12T02:25:18.419Z,21.54
2023-04-12T02:25:57.677Z,21.53
2023-04-12T02:26:35.604Z,21.53
2023-04-12T02:27:14.893Z,21.49
2023-04-12T02:27:52.794Z,21.52
2023-04-12T02:28:30.172Z,21.49
2023-04-12T02:29:09.861Z,21.53
2023-04-12T02:29:50.142Z,21.53
2023-04-12T02:30:27.129Z,21.52
2023-04-12T02:31:06.332Z,21.52
2023-04-12T02:31:43.418Z,21.48
2023-04-12T02:32:20.937Z,21.47
2023-04-12T02:33:00.433Z,21.50
2023-04-12T02:33:39.430Z,21.48
2023-04-12T02:34:16.610Z,21.49
2023-04-12T02:34:55.240Z,21.51
2023-04-12T02:35:33.757Z,21.54
2023-04-12T02:36:11.613Z,21.56
2023-04-12T02:36:51.228Z,21.53
2023-04-12T02:37:32.334Z,21.54
2023-04-12T02:38:10.797Z,21.53
2023-04-12T02:38:49.763Z,21.55
2023-04-12T02:39:28.756Z,21.55
2023-04-12T02:40:05.777Z,21.51
2023-04-12T02:40:44.643Z,21.53
2023-04-12T02:41:22.722Z,21.54
2023-04-12T02:42:01.108Z,21.54
2023-04-12T02:42:39.359Z,21.54
2023-04-12T02:43:17.690Z,21.51
2023-04-12T02:43:55.622Z,21.52
2023-04-12T02:44:33.978Z,21.53
2023-04-12T02:45:11.443Z,21.55
2023-04-12T02:45:49.229Z,21.50
2023-04-12T02:46:27.835Z,21.51
2023-04-12T02:47:06.928Z,21.52
2023-04-12T02:47:46.145Z,21.49
2023-04-12T02:48:25.101Z,21.52
2023-04-12T02:49:02.406Z,21.53
2023-04-12T02:49:41.181Z,21.53
2023-04-12T02:50:19.750Z,21.56
2023-04-12T02:50:57.041Z,21.57
2023-04-12T02:51:36.025Z,21.55
2023-04-12T02:52:14.347Z,21.56
2023-04-12T02:52:51.726Z,21.55
2023-04-12T02:53:30.570Z,21.52
2023-04-12T02:54:08.064Z,21.53
2023-04-12T02:54:45.042Z,21.52
2023-04-12T02:55:23.756Z,21.50
2023-04-12T02:56:01.074Z,21.50
2023-04-12T02:56:40.326Z,21.50
2023-04-12T02:57:18.263Z,21.49
2023-04-12T02:57:56.247Z,21.49
2023-04-12T02:58:34.874Z,21.51
2023-04-12T02:59:13.695Z,21.54
2023-04-12T02:59:52.099Z,21.54
2023-04-12T03:00:30.410Z,21.53
2023-04-12T03:01:08.369Z,21.54
2023-04-12T03:01:47.055Z,21.53
2023-04-12T03:02:26.234Z,21.55
2023-04-12T03:03:04.367Z,21.55
2023-04-12T03:03:42.872Z,21.55
2023-04-12T03:04:21.960Z,21.55
2023-04-12T03:05:00.520Z,21.52
2023-04-12T03:05:39.202Z,21.53
2023-04-12T03:06:17.438Z,21.53
2023-04-12T03:06:56.466Z,21.52
2023-04-12T03:07:35.115Z,21.55
2023-04-12T03:08:14.976Z,21.55
2023-04-12T03:08:53.361Z,21.55
2023-04-12T03:09:32.229Z,21.55
2023-04-12T03:10:10.063Z,21.52
2023-04-12T03:10:49.272Z,21.51
2023-04-12T03:11:28.997Z,21.52
2023-04-12T03:12:06.153Z,21.55
2023-04-12T03:12:43.999Z,21.52
2023-04-12T03:13:23.023Z,21.54
2023-04-12T03:14:02.387Z,21.53
2023-04-12T03:14:41.107Z,21.53
2023-04-12T03:15:18.189Z,21.53
2023-04-12T03:15:57.716Z,21.48
2023-04-12T03:16:37.183Z,21.47
2023-04-12T03:17:15.503Z,21.50
2023-04-12T03:17:54.340Z,21.47
2023-04-12T03:18:32.571Z,21.51
2023-04-12T03:19:11.446Z,21.50
2023-04-12T03:19:48.855Z,21.46
2023-04-12T03:20:26.901Z,21.48
2023-04-12T03:21:05.895Z,21.47
2023-04-12T03:21:44.271Z,21.48
2023-04-12T03:22:22.349Z,21.50
2023-04-12T03:23:01.042Z,21.47
2023-04-12T03:23:39.145Z,21.48
2023-04-12T03:24:16.831Z,21.50
2023-04-12T03:24:55.763Z,21.52
2023-04-12T03:25:35.063Z,21.50
2023-04-12T03:26:13.475Z,21.49
2023-04-12T03:26:51.883Z,21.51
2023-04-12T03:27:30.549Z,21.48
2023-04-12T03:28:10.246Z,21.49
2023-04-12T03:28:48.550Z,21.48
2023-04-12T03:29:27.324Z,21.52
2023-04-12T03:30:06.432Z,21.46
2023-04-12T03:30:45.128Z,21.50
2023-04-12T03:31:22.648Z,21.48
2023-04-12T03:32:01.716Z,21.51
2023-04-12T03:32:39.940Z,21.48
2023-04-12T03:33:18.632Z,21.50
2023-04-12T03:33:59.903Z,21.49
2023-04-12T03:34:39.351Z,21.50
2023-04-12T03:35:16.242Z,21.49
2023-04-12T03:35:54.607Z,21.48
2023-04-12T03:36:33.436Z,21.49
2023-04-12T03:37:12.569Z,21.46
2023-04-12T03:37:51.800Z,21.48
2023-04-12T03:38:30.438Z,21.47
2023-04-12T03:39:10.170Z,21.50
2023-04-12T03:39:51.072Z,21.50
2023-04-12T03:40:29.846Z,21.52
2023-04-12T03:41:09.281Z,21.48
2023-04-12T03:41:48.740Z,21.48
2023-04-12T03:42:32.974Z,21.50
2023-04-12T03:43:11.988Z,21.50
2023-04-12T03:43:51.251Z,21.49
2023-04-12T03:44:29.476Z,21.48
2023-04-12T03:45:06.346Z,21.51
2023-04-12T03:45:45.522Z,21.46
2023-04-12T03:46:22.682Z,21.45
2023-04-12T03:47:00.899Z,21.46
2023-04-12T03:47:39.105Z,21.47
2023-04-12T03:48:17.573Z,21.47
2023-04-12T03:48:55.966Z,21.45
2023-04-12T03:49:33.937Z,21.46
2023-04-12T03:50:12.558Z,21.48
2023-04-12T03:50:49.418Z,21.48
2023-04-12T03:51:27.669Z,21.47
2023-04-12T03:52:06.240Z,21.47
2023-04-12T03:52:44.600Z,21.46
2023-04-12T03:53:23.632Z,21.45
2023-04-12T03:54:01.962Z,21.51
2023-04-12T03:54:40.515Z,21.51
2023-04-12T03:55:17.877Z,21.50
2023-04-12T03:55:55.033Z,21.50
2023-04-12T03:56:34.228Z,21.50
2023-04-12T03:57:12.485Z,21.50
2023-04-12T03:57:50.011Z,21.50
2023-04-12T03:58:28.012Z,21.47
2023-04-12T03:59:11.103Z,21.47
2023-04-12T03:59:50.020Z,21.45
2023-04-12T04:00:28.546Z,21.48
2023-04-12T04:01:05.965Z,21.50
2023-04-12T04:01:43.301Z,21.45
2023-04-12T04:02:21.696Z,21.47
2023-04-12T04:02:59.341Z,21.48
2023-04-12T04:03:38.739Z,21.46
2023-04-12T04:04:16.743Z,21.48
2023-04-12T04:04:54.470Z,21.47
2023-04-12T04:05:35.348Z,21.49
2023-04-12T04:06:14.061Z,21.49
2023-04-12T04:06:52.105Z,21.48
2023-04-12T04:07:30.401Z,21.47
2023-04-12T04:08:10.004Z,21.49
2023-04-12T04:08:47.999Z,21.43
2023-04-12T04:09:26.598Z,21.45
2023-04-12T04:10:04.808Z,21.44
2023-04-12T04:10:44.050Z,21.44
2023-04-12T04:11:21.188Z,21.47
2023-04-12T04:11:58.541Z,21.50
2023-04-12T04:12:36.962Z,21.48
2023-04-12T04:13:15.338Z,21.48
2023-04-12T04:13:54.423Z,21.46
2023-04-12T04:14:33.714Z,21.46
2023-04-12T04:15:11.436Z,21.49
2023-04-12T04:15:50.810Z,21.50
2023-04-12T04:16:27.960Z,21.52
2023-04-12T04:17:06.491Z,21.49
2023-04-12T04:17:45.090Z,21.48
2023-04-12T04:18:23.060Z,21.48
2023-04-12T04:19:00.860Z,21.47
2023-04-12T04:19:39.539Z,21.50
2023-04-12T04:20:18.518Z,21.51
2023-04-12T04:20:56.906Z,21.52
2023-04-12T04:21:35.363Z,21.49
2023-04-12T04:22:14.925Z,21.49
2023-04-12T04:22:53.878Z,21.46
2023-04-12T04:23:32.921Z,21.45
2023-04-12T04:24:10.357Z,21.48
2023-04-12T04:24:54.670Z,21.48
2023-04-12T04:25:33.503Z,21.45
2023-04-12T04:26:12.590Z,21.48
2023-04-12T04:26:51.345Z,21.45
2023-04-12T04:27:30.215Z,21.46
2023-04-12T04:28:08.781Z,21.46
2023-04-12T04:28:47.387Z,21.44
2023-04-12T04:29:26.065Z,21.47
2023-04-12T04:30:14.677Z,21.46
2023-04-12T04:31:06.405Z,21.40
2023-04-12T04:31:45.170Z,21.42
2023-04-12T04:32:23.401Z,21.39
2023-04-12T04:33:01.253Z,21.39
2023-04-12T04:33:44.850Z,21.42
2023-04-12T04:34:22.497Z,21.42
2023-04-12T04:35:01.576Z,21.47
2023-04-12T04:35:42.245Z,21.48
2023-04-12T04:36:21.124Z,21.49
2023-04-12T04:37:00.759Z,21.49
2023-04-12T04:37:39.799Z,21.44
2023-04-12T04:38:17.330Z,21.47
2023-04-12T04:38:56.710Z,21.47
2023-04-12T04:39:35.551Z,21.43
2023-04-12T04:40:13.259Z,21.43
2023-04-12T04:40:52.979Z,21.45
2023-04-12T04:41:30.134Z,21.46
2023-04-12T04:42:07.557Z,21.47
2023-04-12T04:42:45.548Z,21.46
2023-04-12T04:43:25.483Z,21.48
2023-04-12T04:44:04.659Z,21.50
2023-04-12T04:44:42.027Z,21.51
2023-04-12T04:45:20.953Z,21.46
2023-04-12T04:45:59.942Z,21.46
2023-04-12T04:46:37.555Z,21.45
2023-04-12T04:47:15.422Z,21.47
2023-04-12T04:47:53.787Z,21.44
2023-04-12T04:48:32.025Z,21.45
2023-04-12T04:49:10.819Z,21.42
2023-04-12T04:49:49.757Z,21.43
2023-04-12T04:50:27.854Z,21.43
2023-04-12T04:51:05.926Z,21.46
2023-04-12T04:51:44.447Z,21.44
2023-04-12T04:52:23.357Z,21.46
2023-04-12T04:53:01.833Z,21.48
2023-04-12T04:53:41.172Z,21.48
2023-04-12T04:54:19.402Z,21.45
2023-04-12T04:54:58.470Z,21.46
2023-04-12T04:55:35.404Z,21.47
2023-04-12T04:56:14.267Z,21.46
2023-04-12T04:56:54.031Z,21.46
2023-04-12T04:57:32.419Z,21.42
2023-04-12T04:58:13.820Z,21.45
2023-04-12T04:58:54.065Z,21.48
2023-04-12T04:59:34.523Z,21.46
2023-04-12T05:00:16.963Z,21.46
2023-04-12T05:00:55.179Z,21.39
2023-04-12T05:01:34.489Z,21.40
2023-04-12T05:02:14.230Z,21.44
2023-04-12T05:02:55.351Z,21.42
2023-04-12T05:03:34.377Z,21.45
2023-04-12T05:04:13.994Z,21.45
2023-04-12T05:04:52.007Z,21.44
2023-04-12T05:05:30.184Z,21.43
2023-04-12T05:06:07.806Z,21.43
2023-04-12T05:06:45.981Z,21.45
2023-04-12T05:07:24.316Z,21.45
2023-04-12T05:08:03.305Z,21.47
2023-04-12T05:08:42.241Z,21.47
2023-04-12T05:09:21.213Z,21.45
2023-04-12T05:09:58.432Z,21.43
2023-04-12T05:10:36.484Z,21.41
2023-04-12T05:11:15.215Z,21.44
2023-04-12T05:11:53.741Z,21.41
2023-04-12T05:12:30.644Z,21.45
2023-04-12T05:13:10.184Z,21.43
2023-04-12T05:13:49.285Z,21.43
2023-04-12T05:14:41.311Z,21.42
2023-04-12T05:15:22.590Z,21.43
2023-04-12T05:16:01.578Z,21.38
2023-04-12T05:16:40.783Z,21.44
2023-04-12T05:17:19.321Z,21.46
2023-04-12T05:17:57.809Z,21.43
2023-04-12T05:18:36.607Z,21.44
2023-04-12T05:19:15.326Z,21.47
2023-04-12T05:19:53.832Z,21.45
2023-04-12T05:20:32.084Z,21.45
2023-04-12T05:21:09.698Z,21.47
2023-04-12T05:21:48.144Z,21.44
2023-04-12T05:22:26.181Z,21.45
2023-04-12T05:23:04.649Z,21.44
2023-04-12T05:23:45.479Z,21.39
2023-04-12T05:24:24.915Z,21.44
2023-04-12T05:25:01.919Z,21.45
2023-04-12T05:25:41.294Z,21.39
2023-04-12T05:26:18.604Z,21.44
2023-04-12T05:26:57.486Z,21.47
2023-04-12T05:27:35.760Z,21.44
2023-04-12T05:28:13.859Z,21.44
2023-04-12T05:28:52.533Z,21.42
2023-04-12T05:29:29.663Z,21.43
2023-04-12T05:30:08.226Z,21.44
2023-04-12T05:30:45.788Z,21.44
2023-04-12T05:31:23.688Z,21.44
2023-04-12T05:32:02.635Z,21.45
2023-04-12T05:32:39.820Z,21.42
2023-04-12T05:33:18.116Z,21.41
2023-04-12T05:33:57.073Z,21.43
2023-04-12T05:34:35.765Z,21.44
2023-04-12T05:35:14.191Z,21.45
2023-04-12T05:35:52.756Z,21.44
2023-04-12T05:36:27.391Z,21.45
2023-04-12T05:37:03.336Z,21.43
2023-04-12T05:37:42.007Z,21.40
2023-04-12T05:38:19.773Z,21.44
2023-04-12T05:38:58.892Z,21.43
2023-04-12T05:39:36.593Z,21.41
2023-04-12T05:40:16.278Z,21.45
2023-04-12T05:40:55.334Z,21.45
2023-04-12T05:41:34.465Z,21.48
2023-04-12T05:42:12.788Z,21.46
2023-04-12T05:42:50.960Z,21.46
2023-04-12T05:43:29.548Z,21.44
2023-04-12T05:44:08.283Z,21.44
2023-04-12T05:44:48.640Z,21.43
2023-04-12T05:45:27.360Z,21.42
2023-04-12T05:46:05.721Z,21.39
2023-04-12T05:46:44.416Z,21.39
2023-04-12T05:47:22.789Z,21.37
2023-04-12T05:48:02.086Z,21.35
2023-04-12T05:48:39.165Z,21.36
2023-04-12T05:49:17.533Z,21.37
2023-04-12T05:49:54.998Z,21.37
2023-04-12T05:50:32.500Z,21.36
2023-04-12T05:51:09.741Z,21.36
2023-04-12T05:51:48.390Z,21.34
2023-04-12T05:52:26.842Z,21.37
2023-04-12T05:53:04.692Z,21.42
2023-04-12T05:53:43.839Z,21.40
2023-04-12T05:54:22.432Z,21.39
2023-04-12T05:55:01.142Z,21.40
2023-04-12T05:55:39.706Z,21.40
2023-04-12T05:56:18.362Z,21.42
2023-04-12T05:56:57.585Z,21.42
2023-04-12T05:57:36.961Z,21.43
2023-04-12T05:58:14.796Z,21.45
2023-04-12T05:58:52.882Z,21.45
2023-04-12T05:59:32.303Z,21.45
2023-04-12T06:00:10.007Z,21.46
2023-04-12T06:00:49.153Z,21.47
2023-04-12T06:01:27.618Z,21.44
2023-04-12T06:02:04.840Z,21.46
2023-04-12T06:02:44.118Z,21.43
2023-04-12T06:03:22.859Z,21.39
2023-04-12T06:04:01.918Z,21.42
2023-04-12T06:04:50.007Z,21.44
2023-04-12T06:05:28.727Z,21.41
2023-04-12T06:06:06.228Z,21.40
2023-04-12T06:06:44.482Z,21.40
2023-04-12T06:07:23.529Z,21.43
2023-04-12T06:08:02.649Z,21.40
2023-04-12T06:08:41.166Z,21.43
2023-04-12T06:09:19.702Z,21.44
2023-04-12T06:09:58.556Z,21.40
2023-04-12T06:10:36.487Z,21.40
2023-04-12T06:11:15.358Z,21.44
2023-04-12T06:11:52.677Z,21.43
2023-04-12T06:12:30.969Z,21.43
2023-04-12T06:13:09.716Z,21.42
2023-04-12T06:13:48.611Z,21.44
2023-04-12T06:14:27.222Z,21.43
2023-04-12T06:15:07.351Z,21.44
2023-04-12T06:15:45.803Z,21.46
2023-04-12T06:16:24.627Z,21.45
2023-04-12T06:17:04.297Z,21.44
2023-04-12T06:17:41.925Z,21.43
2023-04-12T06:18:20.899Z,21.46
2023-04-12T06:19:00.023Z,21.43
2023-04-12T06:19:38.311Z,21.40
2023-04-12T06:20:15.430Z,21.42
2023-04-12T06:20:52.499Z,21.42
2023-04-12T06:21:31.378Z,21.39
2023-04-12T06:22:09.592Z,21.42
2023-04-12T06:22:48.196Z,21.43
2023-04-12T06:23:25.371Z,21.44
2023-04-12T06:24:03.531Z,21.43
2023-04-12T06:24:40.728Z,21.42
2023-04-12T06:25:19.151Z,21.45
2023-04-12T06:25:57.788Z,21.46
2023-04-12T06:26:39.706Z,21.43
2023-04-12T06:27:18.053Z,21.40
2023-04-12T06:27:55.949Z,21.43
2023-04-12T06:28:34.889Z,21.46
2023-04-12T06:29:12.132Z,21.45
2023-04-12T06:29:50.154Z,21.43
2023-04-12T06:30:29.183Z,21.43
2023-04-12T06:31:06.324Z,21.45
2023-04-12T06:31:45.568Z,21.42
2023-04-12T06:32:23.656Z,21.45
2023-04-12T06:33:01.908Z,21.46
2023-04-12T06:33:40.312Z,21.47
2023-04-12T06:34:18.808Z,21.46
2023-04-12T06:34:59.328Z,21.45
2023-04-12T06:35:37.456Z,21.44
2023-04-12T06:36:15.319Z,21.46
2023-04-12T06:36:52.699Z,21.44
2023-04-12T06:37:27.431Z,21.45
2023-04-12T06:38:06.555Z,21.42
2023-04-12T06:38:45.061Z,21.39
2023-04-12T06:39:23.187Z,21.39
2023-04-12T06:40:02.313Z,21.40
2023-04-12T06:40:40.585Z,21.37
2023-04-12T06:41:18.496Z,21.38
2023-04-12T06:41:57.339Z,21.41
2023-04-12T06:42:36.337Z,21.43
2023-04-12T06:43:14.626Z,21.44
2023-04-12T06:43:53.823Z,21.42
2023-04-12T06:44:31.977Z,21.45
2023-04-12T06:45:09.666Z,21.45
2023-04-12T06:45:46.952Z,21.46
2023-04-12T06:46:30.896Z,21.47
2023-04-12T06:47:08.802Z,21.46
2023-04-12T06:47:47.386Z,21.49
2023-04-12T06:48:25.883Z,21.45
2023-04-12T06:49:05.077Z,21.43
2023-04-12T06:49:43.670Z,21.44
2023-04-12T06:50:21.852Z,21.42
2023-04-12T06:51:00.438Z,21.44
2023-04-12T06:51:38.856Z,21.41
2023-04-12T06:52:18.052Z,21.42
2023-04-12T06:52:55.637Z,21.40
2023-04-12T06:53:33.463Z,21.41
2023-04-12T06:54:12.041Z,21.46
2023-04-12T06:54:49.366Z,21.46
2023-04-12T06:55:27.497Z,21.46
2023-04-12T06:56:08.190Z,21.42
2023-04-12T06:56:47.465Z,21.42
2023-04-12T06:57:25.394Z,21.44
2023-04-12T06:58:04.785Z,21.40
2023-04-12T06:58:44.277Z,21.43
2023-04-12T06:59:21.490Z,21.46
2023-04-12T07:00:00.765Z,21.45
2023-04-12T07:00:41.715Z,21.48
2023-04-12T07:01:18.790Z,21.48
2023-04-12T07:01:57.848Z,21.43
2023-04-12T07:02:36.266Z,21.44
2023-04-12T07:03:14.185Z,21.45
2023-04-12T07:03:53.802Z,21.42
2023-04-12T07:04:30.740Z,21.42
2023-04-12T07:05:08.311Z,21.45
2023-04-12T07:05:47.234Z,21.40
2023-04-12T07:06:26.394Z,21.42
2023-04-12T07:07:04.794Z,21.42
2023-04-12T07:07:43.292Z,21.45
2023-04-12T07:08:22.161Z,21.48
2023-04-12T07:09:01.206Z,21.48
2023-04-12T07:09:40.192Z,21.47
2023-04-12T07:10:18.599Z,21.42
2023-04-12T07:11:03.858Z,21.42
2023-04-12T07:11:47.076Z,21.41
2023-04-12T07:12:26.222Z,21.42
2023-04-12T07:13:04.661Z,21.43
2023-04-12T07:13:43.182Z,21.44
2023-04-12T07:14:21.971Z,21.45
2023-04-12T07:14:59.780Z,21.45
2023-04-12T07:15:43.169Z,21.45
2023-04-12T07:16:21.673Z,21.47
2023-04-12T07:16:59.830Z,21.45
2023-04-12T07:17:39.657Z,21.39
2023-04-12T07:18:18.873Z,21.43
2023-04-12T07:18:58.274Z,21.47
2023-04-12T07:19:37.771Z,21.49
2023-04-12T07:20:15.633Z,21.38
2023-04-12T07:20:53.170Z,21.45
2023-04-12T07:21:31.631Z,21.35
2023-04-12T07:22:08.831Z,21.36
2023-04-12T07:22:47.449Z,21.39
2023-04-12T07:23:26.570Z,21.40
2023-04-12T07:24:04.271Z,21.42
2023-04-12T07:24:43.022Z,21.44
2023-04-12T07:25:21.896Z,21.42
2023-04-12T07:26:02.772Z,21.39
2023-04-12T07:26:40.473Z,21.39
2023-04-12T07:27:18.822Z,21.43
2023-04-12T07:27:55.722Z,21.47
2023-04-12T07:28:33.993Z,21.47
2023-04-12T07:29:12.843Z,21.45
2023-04-12T07:29:51.103Z,21.43
2023-04-12T07:30:29.392Z,21.44
2023-04-12T07:31:09.385Z,21.42
2023-04-12T07:31:48.439Z,21.40
2023-04-12T07:32:26.490Z,21.37
2023-04-12T07:33:16.308Z,21.40
2023-04-12T07:33:56.180Z,21.42
2023-04-12T07:34:34.860Z,21.43
2023-04-12T07:35:12.139Z,21.46
2023-04-12T07:35:51.133Z,21.44
2023-04-12T07:36:30.162Z,21.42
2023-04-12T07:37:09.312Z,21.44
2023-04-12T07:37:48.399Z,21.43
2023-04-12T07:38:26.297Z,21.46
2023-04-12T07:39:04.677Z,21.43
2023-04-12T07:39:42.818Z,21.42
2023-04-12T07:40:19.651Z,21.41
2023-04-12T07:40:58.419Z,21.44
2023-04-12T07:41:36.648Z,21.47
2023-04-12T07:42:13.842Z,21.44
2023-04-12T07:42:52.215Z,21.42
2023-04-12T07:43:30.593Z,21.44
2023-04-12T07:44:07.452Z,21.43
2023-04-12T07:44:46.076Z,21.35
2023-04-12T07:45:27.416Z,21.37
2023-04-12T07:46:05.972Z,21.39
2023-04-12T07:46:44.560Z,21.41
2023-04-12T07:47:23.284Z,21.38
2023-04-12T07:48:02.138Z,21.39
2023-04-12T07:48:39.196Z,21.42
2023-04-12T07:49:17.158Z,21.45
2023-04-12T07:49:55.451Z,21.48
2023-04-12T07:50:34.472Z,21.45
2023-04-12T07:51:11.531Z,21.44
2023-04-12T07:51:50.289Z,21.47
2023-04-12T07:52:28.329Z,21.48
2023-04-12T07:53:20.924Z,21.47
2023-04-12T07:53:59.827Z,21.50
2023-04-12T07:54:38.049Z,21.48
2023-04-12T07:55:15.935Z,21.47
2023-04-12T07:55:53.958Z,21.46
2023-04-12T07:56:31.209Z,21.47
2023-04-12T07:57:08.651Z,21.44
2023-04-12T07:57:47.177Z,21.40
2023-04-12T07:58:26.564Z,21.43
2023-04-12T07:59:05.098Z,21.44
2023-04-12T07:59:43.124Z,21.44
2023-04-12T08:00:22.010Z,21.43
2023-04-12T08:01:01.612Z,21.41
2023-04-12T08:01:40.265Z,21.37
2023-04-12T08:02:19.122Z,21.42
2023-04-12T08:02:58.019Z,21.43
2023-04-12T08:03:36.292Z,21.46
2023-04-12T08:04:15.398Z,21.45
2023-04-12T08:04:54.375Z,21.45
2023-04-12T08:05:33.017Z,21.42
2023-04-12T08:06:10.557Z,21.45
2023-04-12T08:06:49.061Z,21.42
2023-04-12T08:07:27.039Z,21.43
2023-04-12T08:08:05.382Z,21.42
2023-04-12T08:08:42.486Z,21.45
2023-04-12T08:09:20.767Z,21.42
2023-04-12T08:09:59.393Z,21.43
2023-04-12T08:10:40.197Z,21.43
2023-04-12T08:11:18.812Z,21.40
2023-04-12T08:11:57.030Z,21.43
2023-04-12T08:12:35.604Z,21.43
2023-04-12T08:13:13.326Z,21.46
2023-04-12T08:13:51.895Z,21.44
2023-04-12T08:14:28.903Z,21.42
2023-04-12T08:15:07.547Z,21.40
2023-04-12T08:15:47.111Z,21.45
2023-04-12T08:16:25.991Z,21.45
2023-04-12T08:17:03.132Z,21.45
2023-04-12T08:17:41.498Z,21.44
2023-04-12T08:18:19.983Z,21.48
2023-04-12T08:18:57.618Z,21.47
2023-04-12T08:19:36.698Z,21.47
2023-04-12T08:20:13.921Z,21.46
2023-04-12T08:20:52.422Z,21.45
2023-04-12T08:21:30.720Z,21.45